Time;durP1;ratioP1;P1;durP2;ratioP2;P2;SDS_P1;SDS_P2;PMS_P1;PMS_P2;Temp;Humidity;BMP_temperature;BMP_pressure;BME280_temperature;BME280_humidity;BME280_pressure;Samples;Min_cycle;Max_cycle;Signal;HPM_P1;HPM_P2
2022/10/07 00:02:15;;;;;;;2.88;1.05;;;;;;;-140.72;100.00;52821.06;5043923;28;20425;-68
2022/10/07 00:04:44;;;;;;;3.30;1.13;;;;;;;-140.72;100.00;52786.56;5050883;28;20021;-67
2022/10/07 00:07:10;;;;;;;3.22;1.42;;;;;;;-140.72;100.00;52833.22;5047667;28;20070;-66
2022/10/07 00:09:36;;;;;;;3.70;1.10;;;;;;;-140.72;100.00;52788.59;5049599;28;20055;-67
2022/10/07 00:12:02;;;;;;;4.93;0.90;;;;;;;-140.72;100.00;52768.28;5046541;28;20025;-69
2022/10/07 00:14:27;;;;;;;4.10;0.85;;;;;;;-140.72;100.00;52802.78;5047022;28;20120;-68
2022/10/07 00:16:53;;;;;;;2.67;0.77;;;;;;;-140.72;100.00;52778.44;5048252;28;20114;-66
2022/10/07 00:19:18;;;;;;;5.35;1.77;;;;;;;-140.72;100.00;52772.34;5049034;28;20430;-66
2022/10/07 00:21:43;;;;;;;1.75;0.70;;;;;;;-140.72;100.00;52817.00;5048949;28;20144;-66
2022/10/07 00:24:10;;;;;;;3.63;1.02;;;;;;;-140.72;100.00;52778.44;5048878;28;20075;-67
2022/10/07 00:26:36;;;;;;;1.35;0.80;;;;;;;-140.72;100.00;52812.94;5049446;28;20021;-67
2022/10/07 00:29:03;;;;;;;2.00;1.05;;;;;;;-140.72;100.00;52774.38;5049229;28;20025;-66
2022/10/07 00:31:32;;;;;;;5.45;1.95;;;;;;;-140.72;100.00;52831.19;5036012;28;20040;-67
2022/10/07 00:33:58;;;;;;;4.88;0.85;;;;;;;-140.72;100.00;52752.06;5048921;28;20021;-67
2022/10/07 00:36:28;;;;;;;4.55;1.23;;;;;;;-140.72;100.00;52770.31;5042768;28;20040;-66
2022/10/07 00:39:10;;;;;;;4.88;0.95;;;;;;;-140.72;100.00;52786.56;5029402;28;20136;-66
2022/10/07 00:41:39;;;;;;;5.95;1.20;;;;;;;-140.72;100.00;52812.94;5042854;28;20025;-66
2022/10/07 00:44:23;;;;;;;7.32;1.55;;;;;;;-140.72;100.00;52758.16;5029594;28;20025;-66
2022/10/07 00:46:51;;;;;;;6.57;1.52;;;;;;;-140.72;100.00;52808.88;5045557;28;20020;-67
2022/10/07 00:49:16;;;;;;;1.13;0.70;;;;;;;-140.72;100.00;52786.56;5035948;28;20100;-67
2022/10/07 00:51:42;;;;;;;10.07;1.75;;;;;;;-140.72;100.00;52804.81;5035898;28;20160;-69
2022/10/07 00:54:13;;;;;;;2.65;0.85;;;;;;;-140.72;100.00;52772.34;5049451;28;20454;-67
2022/10/07 00:56:41;;;;;;;2.38;0.82;;;;;;;-140.72;100.00;52772.34;5035294;28;20053;-67
2022/10/07 00:59:07;;;;;;;2.17;1.00;;;;;;;-140.72;100.00;52796.72;5048336;28;20445;-66
2022/10/07 01:01:33;;;;;;;4.00;0.85;;;;;;;-140.72;100.00;52794.69;5036193;28;20033;-67
2022/10/07 01:04:00;;;;;;;5.50;1.70;;;;;;;-140.72;100.00;52837.28;5048241;28;20031;-67
2022/10/07 01:06:25;;;;;;;4.13;1.00;;;;;;;-140.72;100.00;52827.16;5048044;28;20029;-67
2022/10/07 01:08:53;;;;;;;9.00;1.05;;;;;;;-140.72;100.00;52790.63;5049195;28;20419;-67
2022/10/07 01:11:27;;;;;;;4.38;1.20;;;;;;;-140.72;100.00;52829.19;5048353;28;20021;-67
2022/10/07 01:13:59;;;;;;;12.80;1.73;;;;;;;-140.72;100.00;52770.31;5048918;28;20065;-66
2022/10/07 01:16:32;;;;;;;8.43;1.40;;;;;;;-140.72;100.00;52806.84;5048913;28;20025;-67
2022/10/07 01:19:20;;;;;;;2.40;1.23;;;;;;;-140.72;100.00;52778.44;5035762;28;20116;-66
2022/10/07 01:21:57;;;;;;;5.75;0.98;;;;;;;-140.72;100.00;52790.63;5038634;28;20029;-68
2022/10/07 01:24:46;;;;;;;4.88;2.15;;;;;;;-140.72;100.00;52790.63;5046974;28;20394;-68
2022/10/07 01:27:19;;;;;;;6.43;1.08;;;;;;;-140.72;100.00;52800.75;5046929;28;20104;-68
2022/10/07 01:29:54;;;;;;;3.75;1.55;;;;;;;-140.72;100.00;52831.19;5034505;28;20087;-67
2022/10/07 01:32:37;;;;;;;5.15;0.88;;;;;;;-140.72;100.00;52788.59;5047081;28;20029;-68
2022/10/07 01:35:07;;;;;;;1.90;0.73;;;;;;;-140.72;100.00;52821.06;5029021;28;20457;-68
2022/10/07 01:37:39;;;;;;;6.88;1.52;;;;;;;-140.72;100.00;52792.66;5044908;28;20025;-66
2022/10/07 01:40:11;;;;;;;4.97;1.52;;;;;;;-140.72;100.00;52814.97;5039135;28;20025;-66
2022/10/07 01:42:38;;;;;;;4.97;1.58;;;;;;;-140.72;100.00;52800.75;5038622;28;20026;-67
2022/10/07 01:45:05;;;;;;;3.50;0.85;;;;;;;-140.72;100.00;52760.19;5041644;28;20078;-67
2022/10/07 01:47:32;;;;;;;2.85;0.95;;;;;;;-140.72;100.00;52772.34;5038322;28;20033;-66
2022/10/07 01:49:57;;;;;;;4.25;1.25;;;;;;;-140.72;100.00;52800.75;5044846;28;20021;-67
2022/10/07 01:52:35;;;;;;;9.52;1.02;;;;;;;-140.72;100.00;52784.53;5047681;28;20347;-68
2022/10/07 01:55:39;;;;;;;7.05;1.70;;;;;;;-140.72;100.00;52814.97;5039344;28;20075;-68
2022/10/07 01:58:31;;;;;;;4.47;1.25;;;;;;;-140.72;100.00;52823.09;5028772;28;20082;-67
2022/10/07 02:01:18;;;;;;;4.75;1.17;;;;;;;-140.72;100.00;52792.66;5042436;28;20483;-67
2022/10/07 02:04:11;;;;;;;6.07;1.50;;;;;;;-140.72;100.00;52821.06;5047499;28;20480;-67
2022/10/07 02:06:58;;;;;;;2.90;1.63;;;;;;;-140.72;100.00;52782.50;5048374;28;20382;-68
2022/10/07 02:09:36;;;;;;;3.35;1.00;;;;;;;-140.72;100.00;52784.53;5047837;28;20016;-68
2022/10/07 02:12:28;;;;;;;4.70;1.65;;;;;;;-140.72;100.00;52802.78;5048729;28;20025;-68
2022/10/07 02:15:02;;;;;;;4.38;1.15;;;;;;;-140.72;100.00;52810.91;5033165;28;20066;-67
2022/10/07 02:17:33;;;;;;;3.45;1.42;;;;;;;-140.72;100.00;52784.53;5037765;28;20404;-67
2022/10/07 02:20:00;;;;;;;6.28;1.55;;;;;;;-140.72;100.00;52784.53;5048699;28;20057;-68
2022/10/07 02:22:27;;;;;;;3.35;1.35;;;;;;;-140.72;100.00;52819.03;5047331;28;20045;-67
2022/10/07 02:24:57;;;;;;;7.18;1.77;;;;;;;-140.72;100.00;52806.84;5034595;28;20028;-67
2022/10/07 02:27:26;;;;;;;;;;;;;;;-140.72;100.00;52772.34;5035033;28;20216;-66
2022/10/07 02:29:56;;;;;;;5.50;1.50;;;;;;;-140.72;100.00;52821.06;5040872;28;19952;-67
2022/10/07 02:32:25;;;;;;;4.43;1.77;;;;;;;-140.72;100.00;52810.91;5029645;28;20060;-67
2022/10/07 02:35:03;;;;;;;3.05;1.33;;;;;;;-140.72;100.00;52812.94;5033343;28;20024;-66
2022/10/07 02:37:34;;;;;;;10.55;2.10;;;;;;;-140.72;100.00;52812.94;5044556;28;20086;-66
2022/10/07 02:40:02;;;;;;;4.10;2.22;;;;;;;-140.72;100.00;52784.53;5038413;28;20342;-68
2022/10/07 02:42:37;;;;;;;4.97;1.00;;;;;;;-140.72;100.00;52780.47;5033006;28;20355;-66
2022/10/07 02:45:06;;;;;;;10.10;2.35;;;;;;;-140.72;100.00;52806.84;5048001;28;20021;-67
2022/10/07 02:48:05;;;;;;;5.35;1.60;;;;;;;-140.72;100.00;52869.75;5053204;28;20052;-67
2022/10/07 02:50:41;;;;;;;7.22;1.35;;;;;;;-140.72;100.00;52800.75;5039455;28;20025;-67
2022/10/07 02:53:08;;;;;;;3.83;1.48;;;;;;;-140.72;100.00;52806.84;5041369;28;20454;-68
2022/10/07 02:55:34;;;;;;;4.50;1.10;;;;;;;-140.72;100.00;52792.66;5032789;28;20032;-66
2022/10/07 02:58:05;;;;;;;2.92;1.17;;;;;;;-140.72;100.00;52825.13;5032514;28;20104;-67
2022/10/07 03:00:37;;;;;;;8.88;2.08;;;;;;;-140.72;100.00;52802.78;5032891;28;20030;-67
2022/10/07 03:03:04;;;;;;;10.07;2.35;;;;;;;-140.72;100.00;52849.47;5033885;28;20075;-67
2022/10/07 03:05:31;;;;;;;10.25;1.35;;;;;;;-140.72;100.00;52788.59;5044819;28;20129;-67
2022/10/07 03:08:01;;;;;;;7.28;1.95;;;;;;;-140.72;100.00;52796.72;5040392;28;20018;-67
2022/10/07 03:10:27;;;;;;;7.00;1.92;;;;;;;-140.72;100.00;52810.91;5046040;28;20111;-67
2022/10/07 03:12:53;;;;;;;4.82;1.23;;;;;;;-140.72;100.00;52788.59;5051725;28;20028;-67
2022/10/07 03:15:20;;;;;;;5.70;2.13;;;;;;;-140.72;100.00;52806.84;5039250;28;20033;-67
2022/10/07 03:17:46;;;;;;;6.70;2.08;;;;;;;-140.72;100.00;52804.81;5045074;28;20052;-67
2022/10/07 03:20:14;;;;;;;3.72;1.83;;;;;;;-140.72;100.00;52774.38;5047020;28;20453;-67
2022/10/07 03:22:43;;;;;;;8.57;1.95;;;;;;;-140.72;100.00;52790.63;5044392;28;20041;-67
2022/10/07 03:25:13;;;;;;;7.20;2.78;;;;;;;-140.72;100.00;52812.94;5049277;28;20368;-67
2022/10/07 03:27:41;;;;;;;12.80;2.15;;;;;;;-140.72;100.00;52812.94;5052821;28;20025;-67
2022/10/07 03:30:07;;;;;;;6.57;1.90;;;;;;;-140.72;100.00;52808.88;5035679;28;20025;-68
2022/10/07 03:32:33;;;;;;;4.82;2.38;;;;;;;-140.72;100.00;52823.09;5042566;28;20032;-67
2022/10/07 03:34:59;;;;;;;7.22;2.78;;;;;;;-140.72;100.00;52788.59;5034893;28;20067;-68
2022/10/07 03:37:25;;;;;;;4.38;1.40;;;;;;;-140.72;100.00;52827.16;5033476;28;20029;-66
2022/10/07 03:39:51;;;;;;;4.03;1.27;;;;;;;-140.72;100.00;52814.97;5049414;28;20063;-67
2022/10/07 03:42:16;;;;;;;9.15;1.45;;;;;;;-140.72;100.00;52784.53;5051463;28;20486;-67
2022/10/07 03:44:42;;;;;;;5.22;1.80;;;;;;;-140.72;100.00;52829.19;5050234;28;20017;-66
2022/10/07 03:47:08;;;;;;;4.80;1.58;;;;;;;-140.72;100.00;52819.03;5040632;28;20021;-66
2022/10/07 03:49:34;;;;;;;6.57;2.30;;;;;;;-140.72;100.00;52808.88;5051757;28;20489;-66
2022/10/07 03:52:01;;;;;;;5.00;1.65;;;;;;;-140.72;100.00;52808.88;5052425;28;20021;-67
2022/10/07 03:54:27;;;;;;;5.82;1.90;;;;;;;-140.72;100.00;52853.53;5050623;28;20044;-66
2022/10/07 03:56:52;;;;;;;8.18;1.90;;;;;;;-140.72;100.00;52808.88;5052564;28;20020;-66
2022/10/07 03:59:18;;;;;;;3.85;1.35;;;;;;;-140.72;100.00;52814.97;5048052;28;20033;-66
2022/10/07 04:01:43;;;;;;;5.45;1.63;;;;;;;-140.72;100.00;52790.63;5032194;28;20347;-67
2022/10/07 04:04:08;;;;;;;5.25;1.23;;;;;;;-140.72;100.00;52849.47;5045855;28;20097;-66
2022/10/07 04:06:34;;;;;;;3.03;1.38;;;;;;;-140.72;100.00;52806.84;5042292;28;20406;-67
2022/10/07 04:08:59;;;;;;;6.18;1.73;;;;;;;-140.72;100.00;52837.28;5049728;28;20100;-67
2022/10/07 04:11:25;;;;;;;5.38;1.90;;;;;;;-140.72;100.00;52829.19;5050291;28;20037;-66
2022/10/07 04:13:51;;;;;;;7.35;2.63;;;;;;;-140.72;100.00;52804.81;5038788;28;20021;-66
2022/10/07 04:16:18;;;;;;;7.80;2.58;;;;;;;-140.72;100.00;52800.75;5050023;28;20055;-66
2022/10/07 04:18:52;;;;;;;4.50;1.52;;;;;;;-140.72;100.00;52825.13;5037762;28;20028;-69
2022/10/07 04:21:18;;;;;;;7.55;1.75;;;;;;;-140.72;100.00;52812.94;5040756;28;20037;-67
2022/10/07 04:23:43;;;;;;;4.45;1.88;;;;;;;-140.72;100.00;52814.97;5047311;28;20041;-67
2022/10/07 04:26:10;;;;;;;4.78;1.60;;;;;;;-140.72;100.00;52800.75;5039775;28;20075;-67
2022/10/07 04:28:36;;;;;;;8.05;1.88;;;;;;;-140.72;100.00;52806.84;5050184;28;20012;-66
2022/10/07 04:31:04;;;;;;;5.47;1.95;;;;;;;-140.72;100.00;52817.00;5039190;28;20025;-67
2022/10/07 04:33:29;;;;;;;4.90;1.45;;;;;;;-140.72;100.00;52804.81;5050019;28;20133;-66
2022/10/07 04:35:55;;;;;;;4.60;1.52;;;;;;;-140.72;100.00;52798.72;5051679;28;20104;-67
2022/10/07 04:38:20;;;;;;;6.78;1.85;;;;;;;-140.72;100.00;52831.19;5048596;28;20029;-67
2022/10/07 04:40:48;;;;;;;8.13;1.77;;;;;;;-140.72;100.00;52782.50;5050111;28;20049;-67
2022/10/07 04:43:18;;;;;;;3.45;1.45;;;;;;;-140.72;100.00;52829.19;5044704;28;20029;-66
2022/10/07 04:45:47;;;;;;;;;;;;;;;-140.72;100.00;52786.56;5041638;28;20053;-68
2022/10/07 04:48:16;;;;;;;3.25;2.10;;;;;;;-140.72;100.00;52823.09;5050337;28;20410;-67
2022/10/07 04:50:42;;;;;;;7.95;1.80;;;;;;;-140.72;100.00;52853.53;5038983;28;20370;-67
2022/10/07 04:53:09;;;;;;;7.32;1.90;;;;;;;-140.72;100.00;52831.19;5043822;28;20071;-67
2022/10/07 04:55:40;;;;;;;6.03;1.65;;;;;;;-140.72;100.00;52831.19;5037019;28;20461;-66
2022/10/07 04:58:06;;;;;;;5.25;2.10;;;;;;;-140.72;100.00;52825.13;5044456;28;20309;-66
2022/10/07 05:00:32;;;;;;;7.00;1.55;;;;;;;-140.72;100.00;52837.28;5042768;28;20404;-66
2022/10/07 05:02:57;;;;;;;4.38;1.70;;;;;;;-140.72;100.00;52825.13;5050127;28;20068;-66
2022/10/07 05:05:24;;;;;;;2.33;1.25;;;;;;;-140.72;100.00;52808.88;5050343;28;20021;-66
2022/10/07 05:07:51;;;;;;;4.03;1.40;;;;;;;-140.72;100.00;52812.94;5044015;28;20018;-66
2022/10/07 05:10:17;;;;;;;6.93;1.55;;;;;;;-140.72;100.00;52831.19;5043618;28;20148;-70
2022/10/07 05:12:42;;;;;;;4.78;1.77;;;;;;;-140.72;100.00;52808.88;5049722;28;20453;-66
2022/10/07 05:15:09;;;;;;;2.38;1.10;;;;;;;-140.72;100.00;52821.06;5050741;28;20017;-69
2022/10/07 05:17:34;;;;;;;4.78;1.55;;;;;;;-140.72;100.00;52833.22;5049069;28;20385;-68
2022/10/07 05:20:00;;;;;;;4.57;1.52;;;;;;;-140.72;100.00;52817.00;5036143;28;20045;-66
2022/10/07 05:22:26;;;;;;;11.70;2.28;;;;;;;-140.72;100.00;52835.25;5048376;28;20052;-68
2022/10/07 05:24:51;;;;;;;5.88;1.52;;;;;;;-140.72;100.00;52833.22;5048888;28;20021;-67
2022/10/07 05:27:17;;;;;;;7.22;1.45;;;;;;;-140.72;100.00;52808.88;5035088;28;20021;-67
2022/10/07 05:29:42;;;;;;;4.05;1.67;;;;;;;-140.72;100.00;52814.97;5039110;28;20028;-68
2022/10/07 05:32:08;;;;;;;6.03;2.15;;;;;;;-140.72;100.00;52827.16;5042235;28;20029;-67
2022/10/07 05:34:33;;;;;;;2.95;1.15;;;;;;;-140.72;100.00;52802.78;5042190;28;20028;-67
2022/10/07 05:37:00;;;;;;;5.47;1.42;;;;;;;-140.72;100.00;52800.75;5045196;28;20028;-67
2022/10/07 05:39:26;;;;;;;7.30;1.73;;;;;;;-140.72;100.00;52774.38;5036771;28;20020;-68
2022/10/07 05:41:51;;;;;;;3.30;1.38;;;;;;;-140.72;100.00;52794.69;5041414;28;20024;-66
2022/10/07 05:44:16;;;;;;;6.15;1.85;;;;;;;-140.72;100.00;52804.81;5042646;28;20058;-66
2022/10/07 05:46:42;;;;;;;6.47;1.50;;;;;;;-140.72;100.00;52817.00;5046575;28;20063;-67
2022/10/07 05:49:07;;;;;;;2.10;1.38;;;;;;;-140.72;100.00;52810.91;5041330;28;20056;-67
2022/10/07 05:51:33;;;;;;;4.55;1.25;;;;;;;-140.72;100.00;52821.06;5046790;28;20033;-67
2022/10/07 05:53:58;;;;;;;2.53;2.08;;;;;;;-140.72;100.00;52810.91;5047862;28;20254;-68
2022/10/07 05:56:24;;;;;;;5.03;1.88;;;;;;;-140.72;100.00;52821.06;5044595;28;20025;-67
2022/10/07 05:58:54;;;;;;;5.35;1.48;;;;;;;-140.72;100.00;52819.03;5042845;28;20017;-68
2022/10/07 06:01:22;;;;;;;2.55;1.58;;;;;;;-140.72;100.00;52784.53;5041390;28;20029;-69
2022/10/07 06:03:53;;;;;;;8.38;2.33;;;;;;;-140.72;100.00;52814.97;5045201;28;20163;-68
2022/10/07 06:06:18;;;;;;;3.15;1.48;;;;;;;-140.72;100.00;52812.94;5039246;28;20457;-67
2022/10/07 06:08:45;;;;;;;4.05;2.08;;;;;;;-140.72;100.00;52821.06;5047189;28;20017;-67
2022/10/07 06:13:57;;;;;;;5.07;1.65;;;;;;;-140.72;100.00;52831.19;5043008;28;20111;-68
2022/10/07 06:16:24;;;;;;;9.23;2.78;;;;;;;-140.72;100.00;52788.59;5044151;28;20045;-68
2022/10/07 06:18:51;;;;;;;4.20;1.38;;;;;;;-140.72;100.00;52819.03;5044853;28;20025;-67
2022/10/07 06:21:18;;;;;;;8.73;1.70;;;;;;;-140.72;100.00;52792.66;5046386;28;20546;-68
2022/10/07 06:23:50;;;;;;;5.20;2.15;;;;;;;-140.72;100.00;52784.53;5043055;28;20139;-68
2022/10/07 06:26:15;;;;;;;6.20;1.65;;;;;;;-140.72;100.00;52794.69;5045366;28;20466;-68
2022/10/07 06:28:41;;;;;;;4.70;1.73;;;;;;;-140.72;100.00;52808.88;5042668;28;20103;-67
2022/10/07 06:31:09;;;;;;;6.65;2.20;;;;;;;-140.72;100.00;52788.59;5047400;28;20056;-68
2022/10/07 06:33:35;;;;;;;2.03;1.13;;;;;;;-140.72;100.00;52833.22;5047633;28;20104;-68
2022/10/07 06:36:02;;;;;;;4.68;1.75;;;;;;;-140.72;100.00;52831.19;5040736;28;20155;-68
2022/10/07 06:38:27;;;;;;;10.98;1.80;;;;;;;-140.72;100.00;52812.94;5042084;28;20114;-67
2022/10/07 06:40:57;;;;;;;6.85;1.55;;;;;;;-140.72;100.00;52831.19;5038694;28;20104;-68
2022/10/07 06:43:25;;;;;;;14.32;1.90;;;;;;;-140.72;100.00;52825.13;5042561;28;20079;-67
2022/10/07 06:45:51;;;;;;;9.98;2.20;;;;;;;-140.72;100.00;52796.72;5041948;28;20040;-67
2022/10/07 06:48:17;;;;;;;8.82;1.92;;;;;;;-140.72;100.00;52766.25;5044338;28;20037;-68
2022/10/07 06:50:52;;;;;;;8.48;2.03;;;;;;;-140.72;100.00;52804.81;5046535;28;20020;-67
2022/10/07 06:53:18;;;;;;;2.08;1.38;;;;;;;-140.72;100.00;52798.72;5041350;28;20029;-67
2022/10/07 06:55:44;;;;;;;8.52;1.60;;;;;;;-140.72;100.00;52784.53;5047274;28;20025;-67
2022/10/07 06:58:09;;;;;;;6.07;1.45;;;;;;;-140.72;100.00;52821.06;5043149;28;20483;-67
2022/10/07 07:00:35;;;;;;;5.63;2.00;;;;;;;-140.72;100.00;52780.47;5045172;28;20024;-68
2022/10/07 07:03:01;;;;;;;8.77;1.73;;;;;;;-140.72;100.00;52804.81;5043155;28;20013;-68
2022/10/07 07:05:36;;;;;;;6.50;2.17;;;;;;;-140.72;100.00;52794.69;5046990;28;20029;-67
2022/10/07 07:08:01;;;;;;;4.90;1.13;;;;;;;-140.72;100.00;52808.88;5044629;28;20017;-68
2022/10/07 07:10:27;;;;;;;6.53;1.85;;;;;;;-140.72;100.00;52796.72;5045211;28;20085;-68
2022/10/07 07:12:53;;;;;;;4.93;1.73;;;;;;;-140.72;100.00;52772.34;5042346;28;20033;-67
2022/10/07 07:15:19;;;;;;;6.75;1.88;;;;;;;-140.72;100.00;52804.81;5044260;28;20361;-68
2022/10/07 07:17:47;;;;;;;5.05;1.77;;;;;;;-140.72;100.00;52806.84;5044043;28;20448;-68
2022/10/07 07:20:13;;;;;;;4.95;1.40;;;;;;;-140.72;100.00;52748.00;5046704;28;20021;-68
2022/10/07 07:22:39;;;;;;;3.30;1.48;;;;;;;-140.72;100.00;52772.34;5046358;28;20128;-67
2022/10/07 07:25:05;;;;;;;4.57;1.67;;;;;;;-140.72;100.00;52784.53;5044704;28;20942;-67
2022/10/07 07:27:31;;;;;;;5.50;1.88;;;;;;;-140.72;100.00;52764.25;5043336;28;20048;-67
2022/10/07 07:29:57;;;;;;;1.73;0.90;;;;;;;-140.72;100.00;52711.47;5045914;28;20017;-68
2022/10/07 07:32:23;;;;;;;4.60;1.48;;;;;;;-140.72;100.00;52750.03;5049162;28;20029;-69
2022/10/07 07:34:48;;;;;;;3.33;1.38;;;;;;;-140.72;100.00;52762.22;5050910;28;20024;-68
2022/10/07 07:37:15;;;;;;;3.63;1.63;;;;;;;-140.72;100.00;52754.09;5051205;28;20053;-67
2022/10/07 07:39:41;;;;;;;4.30;1.88;;;;;;;-140.72;100.00;52754.09;5049158;28;20024;-68
2022/10/07 07:42:07;;;;;;;11.57;1.70;;;;;;;-140.72;100.00;52780.47;5049635;28;20021;-67
2022/10/07 07:44:35;;;;;;;5.60;1.98;;;;;;;-140.72;100.00;52752.06;5050210;28;20043;-67
2022/10/07 07:47:01;;;;;;;8.63;1.83;;;;;;;-140.72;100.00;52760.19;5050059;28;20028;-67
2022/10/07 07:49:30;;;;;;;4.65;1.63;;;;;;;-140.72;100.00;52754.09;5049078;28;20021;-67
2022/10/07 07:51:57;;;;;;;3.20;1.63;;;;;;;-140.72;100.00;52758.16;5047147;28;20402;-67
2022/10/07 07:54:24;;;;;;;5.43;1.45;;;;;;;-140.72;100.00;52737.84;5048294;28;20021;-68
2022/10/07 07:56:49;;;;;;;7.22;1.92;;;;;;;-140.72;100.00;52762.22;5047225;28;20021;-67
2022/10/07 07:59:15;;;;;;;10.77;2.97;;;;;;;-140.72;100.00;52715.53;5043566;28;20122;-67
2022/10/07 08:01:43;;;;;;;7.22;2.05;;;;;;;-140.72;100.00;52719.59;5048581;28;20109;-68
2022/10/07 08:04:09;;;;;;;4.90;1.45;;;;;;;-140.72;100.00;52756.13;5047068;28;20044;-68
2022/10/07 08:06:34;;;;;;;3.83;1.75;;;;;;;-140.72;100.00;52733.78;5041850;28;20033;-67
2022/10/07 08:09:00;;;;;;;8.93;1.52;;;;;;;-140.72;100.00;52733.78;5046293;28;20032;-67
2022/10/07 08:11:27;;;;;;;12.25;2.47;;;;;;;-140.72;100.00;52745.97;5046599;28;20049;-68
2022/10/07 08:13:54;;;;;;;3.78;1.08;;;;;;;-140.72;100.00;52741.91;5044722;28;20449;-68
2022/10/07 08:16:21;;;;;;;2.95;0.85;;;;;;;-140.72;100.00;52707.41;5045359;28;20025;-68
2022/10/07 08:18:49;;;;;;;8.20;1.77;;;;;;;-140.72;100.00;52719.59;5039672;28;20091;-68
2022/10/07 08:21:17;;;;;;;8.45;1.92;;;;;;;-140.72;100.00;52666.84;5042135;28;20100;-68
2022/10/07 08:23:43;;;;;;;5.82;1.60;;;;;;;-140.72;100.00;52693.22;5050058;28;20163;-67
2022/10/07 08:26:08;;;;;;;5.38;1.52;;;;;;;-140.72;100.00;52711.47;5037914;28;20099;-67
2022/10/07 08:28:35;;;;;;;3.15;1.02;;;;;;;-140.72;100.00;52693.22;5045120;28;20028;-67
2022/10/07 08:31:05;;;;;;;3.85;1.13;;;;;;;-140.72;100.00;52691.19;5051364;28;20017;-67
2022/10/07 08:33:33;;;;;;;5.10;1.58;;;;;;;-140.72;100.00;52711.47;5047740;28;20029;-68
2022/10/07 08:36:00;;;;;;;4.57;1.27;;;;;;;-140.72;100.00;52687.13;5040392;28;20457;-67
2022/10/07 08:38:37;;;;;;;9.55;1.90;;;;;;;-140.72;100.00;52715.53;5048521;28;20545;-68
2022/10/07 08:41:05;;;;;;;6.15;1.45;;;;;;;-140.72;100.00;52656.69;5049991;28;20479;-68
2022/10/07 08:43:32;;;;;;;8.23;1.80;;;;;;;-140.72;100.00;52691.19;5043058;28;20057;-67
2022/10/07 08:45:59;;;;;;;11.90;2.03;;;;;;;-140.72;100.00;52634.38;5032767;28;20465;-68
2022/10/07 08:48:31;;;;;;;8.07;1.52;;;;;;;-140.72;100.00;52709.44;5048971;28;20029;-68
2022/10/07 08:51:05;;;;;;;7.43;2.10;;;;;;;-140.72;100.00;52693.22;5045760;28;20032;-67
2022/10/07 08:53:34;;;;;;;4.15;1.65;;;;;;;-140.72;100.00;52679.00;5029589;28;20639;-67
2022/10/07 08:56:02;;;;;;;11.57;1.60;;;;;;;-140.72;100.00;52683.06;5040999;28;20052;-67
2022/10/07 08:58:42;;;;;;;4.95;1.17;;;;;;;-140.72;100.00;52707.41;5045144;28;20033;-67
2022/10/07 09:01:41;;;;;;;7.63;1.73;;;;;;;-140.72;100.00;52687.13;5030503;28;20398;-68
2022/10/07 09:04:25;;;;;;;4.00;0.95;;;;;;;-140.72;100.00;52660.75;5046405;28;20056;-69
2022/10/07 09:06:59;;;;;;;6.32;1.85;;;;;;;-140.72;100.00;52668.84;5044181;28;20369;-68
2022/10/07 09:09:31;;;;;;;3.50;1.10;;;;;;;-140.72;100.00;52662.78;5044734;28;20445;-67
2022/10/07 09:11:59;;;;;;;4.20;1.42;;;;;;;-140.72;100.00;52658.72;5035485;28;20021;-67
2022/10/07 09:14:34;;;;;;;5.65;1.95;;;;;;;-140.72;100.00;52666.84;5043189;28;20407;-67
2022/10/07 09:17:05;;;;;;;8.32;1.63;;;;;;;-140.72;100.00;52674.94;5042038;28;20169;-67
2022/10/07 09:19:35;;;;;;;3.97;1.10;;;;;;;-140.72;100.00;52666.84;5048205;28;20017;-68
2022/10/07 09:22:16;;;;;;;4.93;1.35;;;;;;;-140.72;100.00;52717.56;5045226;28;20059;-67
2022/10/07 09:24:43;;;;;;;7.88;1.73;;;;;;;-140.72;100.00;52691.19;5039680;28;20402;-67
2022/10/07 09:27:16;;;;;;;4.28;1.13;;;;;;;-140.72;100.00;52691.19;5038105;28;20485;-67
2022/10/07 09:29:41;;;;;;;4.35;1.20;;;;;;;-140.72;100.00;52646.53;5046879;28;20453;-68
2022/10/07 09:32:13;;;;;;;8.57;1.77;;;;;;;-140.72;100.00;52658.72;5039745;28;20035;-68
2022/10/07 09:34:39;;;;;;;4.82;1.05;;;;;;;-140.72;100.00;52660.75;5040910;28;20024;-67
2022/10/07 09:37:20;;;;;;;7.22;2.10;;;;;;;-140.72;100.00;52648.56;5047946;28;20020;-68
2022/10/07 09:39:50;;;;;;;2.20;0.85;;;;;;;-140.72;100.00;52636.38;5045604;28;20099;-68
2022/10/07 09:42:28;;;;;;;4.10;1.33;;;;;;;-140.72;100.00;52618.13;5046129;28;20032;-68
2022/10/07 09:44:56;;;;;;;8.57;1.58;;;;;;;-140.72;100.00;52650.59;5049177;28;20027;-67
2022/10/07 09:47:24;;;;;;;7.82;1.05;;;;;;;-140.72;100.00;52605.94;5048381;28;20025;-68
2022/10/07 09:49:53;;;;;;;2.58;1.13;;;;;;;-140.72;100.00;52585.66;5049114;28;20024;-68
2022/10/07 09:52:22;;;;;;;9.40;1.17;;;;;;;-140.72;100.00;52597.84;5037131;28;20108;-67
2022/10/07 09:54:56;;;;;;;5.20;1.10;;;;;;;-140.72;100.00;52577.53;5042616;28;20048;-67
2022/10/07 09:57:24;;;;;;;1.55;0.70;;;;;;;-140.72;100.00;52577.53;5029885;28;20029;-68
2022/10/07 09:59:50;;;;;;;5.18;1.17;;;;;;;-140.72;100.00;52589.72;5030358;28;20104;-67
2022/10/07 10:02:24;;;;;;;5.68;1.20;;;;;;;-140.72;100.00;52547.09;5042714;28;20055;-67
2022/10/07 10:04:55;;;;;;;6.60;0.88;;;;;;;-140.72;100.00;52577.53;5046943;28;20120;-68
2022/10/07 10:07:33;;;;;;;6.05;1.05;;;;;;;-140.72;100.00;52597.84;5041531;28;20024;-67
2022/10/07 10:10:11;;;;;;;2.85;0.93;;;;;;;-140.72;100.00;52553.19;5043832;28;20027;-67
2022/10/07 10:12:45;;;;;;;2.83;0.88;;;;;;;-140.72;100.00;52597.84;5048198;28;20021;-67
2022/10/07 10:15:37;;;;;;;6.57;1.27;;;;;;;-140.72;100.00;52610.00;5047881;28;20024;-68
2022/10/07 10:18:25;;;;;;;1.77;0.88;;;;;;;-140.72;100.00;52610.00;5036025;28;20021;-68
2022/10/07 10:20:50;;;;;;;7.93;1.33;;;;;;;-140.72;100.00;52589.72;5047347;28;20108;-67
2022/10/07 10:23:28;;;;;;;4.63;0.93;;;;;;;-140.72;100.00;52585.66;5048061;28;20461;-67
2022/10/07 10:26:26;;;;;;;3.67;1.02;;;;;;;-140.72;100.00;52561.31;5046660;28;20037;-67
2022/10/07 10:29:23;;;;;;;5.07;0.73;;;;;;;-140.72;100.00;52593.78;5047786;28;20500;-68
2022/10/07 10:31:58;;;;;;;4.70;1.20;;;;;;;-140.72;100.00;52593.78;5047567;28;20116;-68
2022/10/07 10:34:51;;;;;;;3.45;1.27;;;;;;;-140.72;100.00;52593.78;5044942;28;20426;-67
2022/10/07 10:37:19;;;;;;;4.10;1.17;;;;;;;-140.72;100.00;52528.84;5038779;28;20119;-67
2022/10/07 10:39:59;;;;;;;5.00;1.05;;;;;;;-140.72;100.00;52563.34;5045354;28;20045;-67
2022/10/07 10:42:33;;;;;;;7.40;1.45;;;;;;;-140.72;100.00;52589.72;5047085;28;20036;-67
2022/10/07 10:45:31;;;;;;;7.63;1.48;;;;;;;-140.72;100.00;52553.19;5044911;28;20052;-67
2022/10/07 10:48:17;;;;;;;9.73;1.33;;;;;;;-140.72;100.00;52563.34;5027866;28;20041;-68
2022/10/07 10:50:45;;;;;;;13.02;1.45;;;;;;;-140.72;100.00;52557.25;5034693;28;20028;-68
2022/10/07 10:53:20;;;;;;;4.18;1.17;;;;;;;-140.72;100.00;52547.09;5034473;28;20241;-68
2022/10/07 10:55:57;;;;;;;3.67;0.93;;;;;;;-140.72;100.00;52569.44;5041875;28;20040;-68
2022/10/07 10:58:44;;;;;;;3.05;0.82;;;;;;;-140.72;100.00;52583.63;5048900;28;20357;-68
2022/10/07 11:01:35;;;;;;;7.20;1.40;;;;;;;-140.72;100.00;52549.13;5038541;28;20132;-67
2022/10/07 11:04:30;;;;;;;6.25;1.27;;;;;;;-140.72;100.00;52567.41;5036210;28;20398;-68
2022/10/07 11:07:43;;;;;;;3.85;1.10;;;;;;;-140.72;100.00;52536.97;5042670;28;20104;-68
2022/10/07 11:10:18;;;;;;;6.57;1.45;;;;;;;-140.72;100.00;52595.81;5058594;28;20041;-68
2022/10/07 11:12:48;;;;;;;2.95;0.77;;;;;;;-140.72;100.00;52581.59;5050592;28;20345;-68
2022/10/07 11:15:40;;;;;;;1.92;0.63;;;;;;;-140.72;100.00;52573.50;5051587;28;20457;-68
2022/10/07 11:18:17;;;;;;;5.10;0.70;;;;;;;-140.72;100.00;52573.50;5051444;28;20024;-67
2022/10/07 11:20:46;;;;;;;5.55;1.00;;;;;;;-140.72;100.00;52555.22;5051423;28;20383;-68
2022/10/07 11:23:30;;;;;;;;;;;;;;;-140.72;100.00;52565.38;5043614;28;20033;-68
2022/10/07 11:26:01;;;;;;;1.90;0.63;;;;;;;-140.72;100.00;52603.94;5039587;28;20422;-68
2022/10/07 11:28:33;;;;;;;2.20;0.77;;;;;;;-140.72;100.00;52563.34;5050850;28;20377;-68